Time;durP1;ratioP1;P1;durP2;ratioP2;P2;SDS_P1;SDS_P2;PMS_P1;PMS_P2;Temp;Humidity;BMP_temperature;BMP_pressure;BME280_temperature;BME280_humidity;BME280_pressure;Samples;Min_cycle;Max_cycle;Signal;HPM_P1;HPM_P2
2023/04/02 00:00:34;;;;;;;2.17;1.05;;;18.20;99.90;;;;;;5053548;28;20760;-75
2023/04/02 00:03:07;;;;;;;3.47;0.98;;;18.20;99.90;;;;;;5052743;28;20252;-75
2023/04/02 00:05:51;;;;;;;1.55;0.73;;;18.20;99.90;;;;;;5052956;28;20196;-75
2023/04/02 00:08:25;;;;;;;2.15;0.85;;;18.30;99.90;;;;;;5054342;28;20211;-76
2023/04/02 00:10:58;;;;;;;2.80;1.10;;;18.30;99.90;;;;;;5058741;28;20250;-75
2023/04/02 00:13:41;;;;;;;3.55;1.27;;;18.40;99.90;;;;;;5051908;28;20289;-75
2023/04/02 00:16:16;;;;;;;2.78;0.90;;;18.40;99.90;;;;;;5051791;28;21466;-76
2023/04/02 00:18:50;;;;;;;5.25;1.13;;;18.50;99.90;;;;;;5054177;28;20194;-75
2023/04/02 00:21:29;;;;;;;6.45;1.23;;;18.40;99.90;;;;;;5053355;28;20312;-75
2023/04/02 00:24:03;;;;;;;3.60;1.00;;;18.50;99.90;;;;;;5050976;28;20203;-76
2023/04/02 00:26:36;;;;;;;8.45;1.20;;;18.50;99.90;;;;;;5052699;28;20931;-75
2023/04/02 00:29:08;;;;;;;4.07;1.00;;;18.50;99.90;;;;;;5051902;28;20199;-75
2023/04/02 00:31:43;;;;;;;5.22;1.40;;;18.60;99.90;;;;;;5051869;28;20199;-75
2023/04/02 00:34:22;;;;;;;4.05;1.08;;;18.70;99.90;;;;;;5051341;28;20225;-76
2023/04/02 00:36:55;;;;;;;4.43;1.10;;;18.70;99.90;;;;;;5051486;28;20953;-75
2023/04/02 00:39:28;;;;;;;4.45;1.00;;;18.60;99.90;;;;;;5056320;28;20200;-75
2023/04/02 00:42:05;;;;;;;3.95;1.20;;;18.70;99.90;;;;;;5052170;28;20361;-75
2023/04/02 00:44:41;;;;;;;7.00;1.45;;;18.80;99.90;;;;;;5052240;28;20223;-76
2023/04/02 00:47:20;;;;;;;6.82;1.45;;;18.80;99.90;;;;;;5050405;28;20369;-75
2023/04/02 00:49:55;;;;;;;4.68;1.13;;;18.80;99.90;;;;;;5052593;28;20677;-76
2023/04/02 00:52:30;;;;;;;2.25;0.95;;;18.90;99.90;;;;;;5079476;28;20201;-76
2023/04/02 00:55:10;;;;;;;3.63;1.05;;;19.00;99.90;;;;;;5071217;28;20270;-76
2023/04/02 00:57:45;;;;;;;3.97;1.20;;;19.10;99.90;;;;;;5065215;28;20451;-75
2023/04/02 01:00:23;;;;;;;4.60;1.10;;;19.10;99.90;;;;;;5078194;28;20256;-75
2023/04/02 01:03:29;;;;;;;4.60;1.05;;;19.20;99.90;;;;;;5072533;28;20219;-74
2023/04/02 01:06:04;;;;;;;4.97;0.90;;;19.20;99.90;;;;;;5069601;28;20196;-76
2023/04/02 01:09:00;;;;;;;3.90;1.60;;;19.30;99.90;;;;;;5065375;28;20256;-76
2023/04/02 01:12:01;;;;;;;4.63;1.30;;;19.40;99.90;;;;;;5056075;28;20199;-74
2023/04/02 01:14:51;;;;;;;6.47;1.30;;;19.30;99.90;;;;;;5038364;28;20598;-74
2023/04/02 01:17:36;;;;;;;10.70;1.30;;;19.40;99.90;;;;;;5057965;28;20241;-75
2023/04/02 01:20:26;;;;;;;9.02;1.75;;;19.30;99.90;;;;;;5051790;28;20199;-75
2023/04/02 01:23:06;;;;;;;12.55;1.80;;;19.20;99.90;;;;;;5071891;28;20864;-74
2023/04/02 01:25:54;;;;;;;7.32;1.45;;;19.30;99.90;;;;;;5058759;28;20187;-74
2023/04/02 01:28:29;;;;;;;6.47;1.40;;;19.20;99.90;;;;;;5053950;28;20215;-75
2023/04/02 01:31:04;;;;;;;4.82;1.40;;;19.30;99.90;;;;;;5054913;28;20484;-75
2023/04/02 01:33:37;;;;;;;5.82;1.40;;;19.30;99.90;;;;;;5054187;28;20203;-76
2023/04/02 01:36:17;;;;;;;8.35;1.38;;;19.40;99.90;;;;;;5055339;28;20199;-75
2023/04/02 01:39:01;;;;;;;5.95;1.00;;;19.50;99.90;;;;;;5055367;28;20666;-76
2023/04/02 01:41:39;;;;;;;6.57;1.52;;;19.50;99.90;;;;;;5056384;28;20293;-76
2023/04/02 01:44:13;;;;;;;4.68;1.30;;;19.50;99.90;;;;;;5054749;28;20195;-76
2023/04/02 01:46:49;;;;;;;4.88;1.30;;;19.50;99.90;;;;;;5058328;28;20296;-75
2023/04/02 01:49:23;;;;;;;4.93;0.98;;;19.60;99.90;;;;;;5056149;28;20206;-76
2023/04/02 01:51:56;;;;;;;5.03;1.02;;;19.60;99.90;;;;;;5058017;28;20647;-75
2023/04/02 01:54:27;;;;;;;4.93;1.05;;;19.70;99.90;;;;;;5057828;28;20218;-76
2023/04/02 01:56:59;;;;;;;6.95;1.38;;;19.70;99.90;;;;;;5057404;28;20199;-76
2023/04/02 01:59:32;;;;;;;4.57;0.93;;;19.80;99.90;;;;;;5057819;28;20203;-76
2023/04/02 02:02:07;;;;;;;8.93;1.20;;;19.90;99.90;;;;;;5058535;28;20342;-75
2023/04/02 02:04:38;;;;;;;4.95;1.00;;;20.10;99.90;;;;;;5057681;28;20195;-76
2023/04/02 02:07:15;;;;;;;5.57;1.10;;;20.20;99.90;;;;;;5057718;28;20246;-75
2023/04/02 02:09:46;;;;;;;6.50;1.25;;;20.30;99.90;;;;;;5061195;28;20223;-76
2023/04/02 02:12:17;;;;;;;6.40;1.38;;;20.40;99.90;;;;;;5057515;28;20631;-75
2023/04/02 02:14:53;;;;;;;6.63;1.27;;;20.50;99.90;;;;;;5059293;28;20236;-76
2023/04/02 02:17:32;;;;;;;5.85;1.58;;;20.60;99.90;;;;;;5058959;28;21594;-76
2023/04/02 02:20:09;;;;;;;8.40;1.40;;;20.60;99.90;;;;;;5058258;28;20692;-76
2023/04/02 02:22:42;;;;;;;5.28;1.30;;;20.70;99.90;;;;;;5058923;28;20326;-77
2023/04/02 02:25:17;;;;;;;3.28;1.20;;;20.90;99.90;;;;;;5068636;28;20199;-76
2023/04/02 02:28:02;;;;;;;4.47;1.35;;;21.00;99.90;;;;;;5058134;28;20202;-74
2023/04/02 02:30:36;;;;;;;7.03;1.15;;;21.20;99.90;;;;;;5056807;28;20204;-76
2023/04/02 02:33:16;;;;;;;5.97;1.27;;;21.20;99.90;;;;;;5056905;28;20221;-76
2023/04/02 02:35:52;;;;;;;6.47;1.33;;;21.20;99.90;;;;;;5056183;28;20204;-76
2023/04/02 02:38:50;;;;;;;5.28;1.42;;;21.20;99.90;;;;;;5057929;28;20199;-76
2023/04/02 02:41:27;;;;;;;7.10;1.30;;;21.20;99.90;;;;;;5060823;28;20662;-77
2023/04/02 02:44:03;;;;;;;3.92;1.27;;;21.20;99.90;;;;;;5054651;28;20235;-76
2023/04/02 02:46:37;;;;;;;4.88;1.02;;;21.10;99.90;;;;;;5061337;28;20214;-76
2023/04/02 02:49:16;;;;;;;7.40;1.30;;;21.10;99.90;;;;;;5058388;28;20211;-76
2023/04/02 02:51:51;;;;;;;4.03;1.35;;;21.10;99.90;;;;;;5056746;28;20199;-76
2023/04/02 02:54:24;;;;;;;6.65;1.40;;;21.10;99.90;;;;;;5053870;28;20664;-75
2023/04/02 02:56:58;;;;;;;3.50;0.88;;;21.10;99.90;;;;;;5054804;28;20207;-76
2023/04/02 02:59:32;;;;;;;4.82;0.98;;;20.80;99.90;;;;;;5054900;28;20614;-76
2023/04/02 03:02:06;;;;;;;4.25;1.05;;;20.70;99.90;;;;;;5055811;28;20579;-75
2023/04/02 03:04:40;;;;;;;3.20;0.57;;;20.40;99.90;;;;;;5057103;28;20344;-75
2023/04/02 03:07:12;;;;;;;3.95;0.70;;;20.20;99.90;;;;;;5056812;28;20218;-74
2023/04/02 03:09:52;;;;;;;2.03;0.40;;;19.90;99.90;;;;;;5060989;28;20199;-75
2023/04/02 03:12:44;;;;;;;0.98;0.43;;;19.60;99.90;;;;;;5055737;28;20329;-74
2023/04/02 03:15:25;;;;;;;2.85;0.60;;;19.40;99.90;;;;;;5053993;28;21534;-76
2023/04/02 03:18:01;;;;;;;4.60;0.70;;;19.30;99.90;;;;;;5056200;28;20199;-75
2023/04/02 03:20:41;;;;;;;5.38;1.00;;;19.20;99.90;;;;;;5055111;28;20200;-76
2023/04/02 03:23:21;;;;;;;3.15;0.50;;;19.10;99.90;;;;;;5069236;28;20222;-75
2023/04/02 03:25:58;;;;;;;5.13;0.95;;;19.10;99.90;;;;;;5058876;28;20199;-76
2023/04/02 03:28:33;;;;;;;4.18;1.25;;;19.10;99.90;;;;;;5058229;28;20207;-76
2023/04/02 03:31:08;;;;;;;3.70;0.95;;;19.10;99.90;;;;;;5057510;28;20566;-76
2023/04/02 03:33:42;;;;;;;4.28;1.30;;;19.10;99.90;;;;;;5056303;28;20207;-75
2023/04/02 03:36:21;;;;;;;4.63;1.08;;;19.10;99.90;;;;;;5057286;28;20203;-75
2023/04/02 03:38:55;;;;;;;3.95;0.95;;;19.20;99.90;;;;;;5057405;28;20207;-75
2023/04/02 03:41:32;;;;;;;8.55;1.40;;;19.10;99.90;;;;;;5057110;28;20696;-75
2023/04/02 03:44:08;;;;;;;2.92;0.95;;;19.00;99.90;;;;;;5055955;28;20797;-76
2023/04/02 03:46:43;;;;;;;4.13;0.90;;;19.00;99.90;;;;;;5058276;28;20208;-74
2023/04/02 03:49:20;;;;;;;4.03;1.17;;;18.90;99.90;;;;;;5054050;28;20551;-75
2023/04/02 03:52:04;;;;;;;3.30;0.80;;;18.90;99.90;;;;;;5062281;28;20196;-76
2023/04/02 03:54:36;;;;;;;3.80;1.00;;;19.00;99.90;;;;;;5054583;28;20203;-77
2023/04/02 03:57:11;;;;;;;3.17;1.05;;;19.00;99.90;;;;;;5053136;28;20206;-77
2023/04/02 03:59:47;;;;;;;2.60;1.08;;;19.00;99.90;;;;;;5053851;28;20249;-76
2023/04/02 04:02:28;;;;;;;2.08;0.95;;;19.00;99.90;;;;;;5052903;28;21495;-77
2023/04/02 04:05:00;;;;;;;2.85;1.00;;;19.10;99.90;;;;;;5054275;28;20642;-77
2023/04/02 04:07:37;;;;;;;2.70;1.33;;;19.00;99.90;;;;;;5057410;28;20208;-76
2023/04/02 04:10:10;;;;;;;3.83;1.20;;;19.10;99.90;;;;;;5060029;28;20206;-76
2023/04/02 04:12:45;;;;;;;3.45;1.10;;;19.00;99.90;;;;;;5054990;28;20195;-77
2023/04/02 04:15:22;;;;;;;3.30;0.90;;;19.00;99.90;;;;;;5053010;28;20234;-77
2023/04/02 04:18:00;;;;;;;2.95;1.02;;;19.10;99.90;;;;;;5053384;28;20961;-77
2023/04/02 04:20:38;;;;;;;5.55;1.30;;;19.10;99.90;;;;;;5053777;28;20204;-76
2023/04/02 04:23:24;;;;;;;2.38;1.00;;;19.10;99.90;;;;;;5059698;28;20573;-76
2023/04/02 04:26:08;;;;;;;3.65;1.30;;;19.20;99.90;;;;;;5053108;28;20199;-76
2023/04/02 04:28:45;;;;;;;5.68;1.20;;;19.20;99.90;;;;;;5050404;28;20191;-77
2023/04/02 04:31:24;;;;;;;6.47;1.60;;;19.20;99.90;;;;;;5049693;28;22102;-77
2023/04/02 04:34:03;;;;;;;3.97;1.48;;;19.20;99.90;;;;;;5050315;28;20203;-77
2023/04/02 04:36:40;;;;;;;4.97;1.02;;;19.20;99.90;;;;;;5056325;28;20220;-77
2023/04/02 04:39:20;;;;;;;5.75;1.17;;;19.20;99.90;;;;;;5054532;28;20533;-77
2023/04/02 04:41:52;;;;;;;3.95;1.02;;;19.20;99.90;;;;;;5050899;28;20249;-77
2023/04/02 04:44:26;;;;;;;4.85;1.30;;;19.20;99.90;;;;;;5051166;28;20234;-77
2023/04/02 04:47:03;;;;;;;4.45;1.02;;;19.20;99.90;;;;;;5055804;28;20203;-77
2023/04/02 04:49:39;;;;;;;4.15;1.17;;;19.20;99.90;;;;;;5050662;28;20200;-76
2023/04/02 04:52:16;;;;;;;5.78;1.10;;;19.20;99.90;;;;;;5055897;28;20195;-77
2023/04/02 04:54:49;;;;;;;4.70;1.00;;;19.30;99.90;;;;;;5049342;28;20681;-77
2023/04/02 04:57:31;;;;;;;3.08;0.80;;;19.20;99.90;;;;;;5049208;28;20814;-77
2023/04/02 05:00:10;;;;;;;5.32;1.00;;;19.20;99.90;;;;;;5049741;28;20201;-76
2023/04/02 05:02:47;;;;;;;4.38;0.88;;;19.20;99.90;;;;;;5050825;28;20238;-76
2023/04/02 05:05:28;;;;;;;4.72;0.95;;;19.20;99.90;;;;;;5051789;28;20811;-77
2023/04/02 05:08:04;;;;;;;2.30;0.80;;;19.20;99.90;;;;;;5050528;28;20215;-76
2023/04/02 05:10:42;;;;;;;4.13;0.93;;;19.20;99.90;;;;;;5056611;28;21717;-76
2023/04/02 05:13:20;;;;;;;5.13;0.93;;;19.20;99.90;;;;;;5050322;28;20693;-76
2023/04/02 05:16:03;;;;;;;3.80;0.90;;;19.20;99.90;;;;;;5052017;28;20646;-77
2023/04/02 05:18:37;;;;;;;3.97;0.90;;;19.20;99.90;;;;;;5052196;28;20192;-76
2023/04/02 05:21:15;;;;;;;4.22;0.77;;;19.30;99.90;;;;;;5051614;28;20217;-76
2023/04/02 05:23:50;;;;;;;3.47;0.80;;;19.30;99.90;;;;;;5063237;28;20234;-76
2023/04/02 05:26:28;;;;;;;2.33;0.80;;;19.30;99.90;;;;;;5054519;28;20217;-77
2023/04/02 05:29:04;;;;;;;5.20;1.00;;;19.30;99.90;;;;;;5054017;28;20200;-77
2023/04/02 05:31:43;;;;;;;3.47;1.00;;;19.40;99.90;;;;;;5051309;28;20256;-77
2023/04/02 05:34:16;;;;;;;5.55;1.08;;;19.30;99.90;;;;;;5053676;28;20687;-77
2023/04/02 05:36:49;;;;;;;3.47;1.00;;;19.40;99.90;;;;;;5055329;28;20202;-77
2023/04/02 05:39:24;;;;;;;5.35;0.90;;;19.40;99.90;;;;;;5054310;28;20567;-77
2023/04/02 05:42:04;;;;;;;3.03;0.82;;;19.40;99.90;;;;;;5050783;28;20673;-77
2023/04/02 05:44:36;;;;;;;3.10;1.30;;;19.50;99.90;;;;;;5052020;28;20237;-77
2023/04/02 05:47:10;;;;;;;2.97;0.98;;;19.60;99.90;;;;;;5051381;28;20262;-76
2023/04/02 05:49:47;;;;;;;5.45;1.20;;;19.60;99.90;;;;;;5051007;28;20202;-77
2023/04/02 05:52:24;;;;;;;5.03;1.35;;;19.60;99.90;;;;;;5052596;28;21282;-76
2023/04/02 05:55:00;;;;;;;3.42;1.20;;;19.70;99.90;;;;;;5050429;28;20467;-77
2023/04/02 05:57:36;;;;;;;3.13;1.00;;;19.70;99.90;;;;;;5054658;28;20579;-77
2023/04/02 06:00:16;;;;;;;4.95;1.23;;;19.80;99.90;;;;;;5051026;28;20203;-76
2023/04/02 06:02:54;;;;;;;5.45;1.35;;;19.80;99.90;;;;;;5050306;28;20313;-77
2023/04/02 06:05:28;;;;;;;3.10;0.98;;;19.80;99.90;;;;;;5052385;28;20546;-77
2023/04/02 06:08:02;;;;;;;3.70;1.15;;;19.80;99.90;;;;;;5050389;28;20249;-77
2023/04/02 06:10:36;;;;;;;4.00;1.13;;;19.80;99.90;;;;;;5057101;28;20231;-77
2023/04/02 06:13:12;;;;;;;5.57;1.33;;;19.90;99.90;;;;;;5049388;28;20208;-77
2023/04/02 06:15:43;;;;;;;3.03;1.23;;;19.90;99.90;;;;;;5048516;28;20203;-76
2023/04/02 06:18:23;;;;;;;5.88;1.52;;;20.00;99.90;;;;;;5050384;28;20200;-77
2023/04/02 06:20:54;;;;;;;4.43;1.30;;;20.20;99.90;;;;;;5051400;28;20200;-75
2023/04/02 06:23:29;;;;;;;4.03;1.13;;;20.30;99.90;;;;;;5063410;28;20224;-76
2023/04/02 06:26:06;;;;;;;2.45;0.80;;;20.30;99.90;;;;;;5050460;28;20199;-76
2023/04/02 06:28:44;;;;;;;4.10;1.05;;;20.50;99.90;;;;;;5051026;28;20851;-76
2023/04/02 06:31:23;;;;;;;4.32;1.02;;;20.50;99.90;;;;;;5051018;28;20908;-76
2023/04/02 06:33:55;;;;;;;3.15;1.13;;;20.50;99.90;;;;;;5051227;28;20211;-76
2023/04/02 06:36:28;;;;;;;2.05;0.98;;;20.40;99.90;;;;;;5054168;28;20806;-76
2023/04/02 06:39:04;;;;;;;3.45;1.20;;;20.30;99.90;;;;;;5054659;28;20280;-76
2023/04/02 06:41:35;;;;;;;6.15;1.30;;;20.30;99.90;;;;;;5057877;28;20282;-77
2023/04/02 06:44:13;;;;;;;8.20;1.55;;;20.20;99.90;;;;;;5053976;28;20227;-77
2023/04/02 06:46:48;;;;;;;3.50;0.93;;;20.20;99.90;;;;;;5057641;28;20213;-77
2023/04/02 06:49:25;;;;;;;4.43;1.17;;;20.20;99.90;;;;;;5059569;28;20235;-77
2023/04/02 06:51:59;;;;;;;2.55;0.80;;;20.10;99.90;;;;;;5054153;28;20199;-77
2023/04/02 06:54:30;;;;;;;2.83;0.85;;;20.10;99.90;;;;;;5054387;28;20595;-76
2023/04/02 06:57:01;;;;;;;5.75;0.98;;;20.10;99.90;;;;;;5054902;28;20363;-76
2023/04/02 06:59:35;;;;;;;5.32;0.93;;;20.00;99.90;;;;;;5054545;28;20234;-76
2023/04/02 07:02:16;;;;;;;3.17;1.00;;;20.00;99.90;;;;;;5053097;28;20211;-76
2023/04/02 07:04:47;;;;;;;2.95;1.08;;;19.90;99.90;;;;;;5053728;28;20269;-76
2023/04/02 07:07:18;;;;;;;4.20;0.90;;;19.90;99.90;;;;;;5054363;28;20300;-75
2023/04/02 07:09:50;;;;;;;3.95;1.20;;;19.90;99.90;;;;;;5053542;28;20659;-76
2023/04/02 07:12:25;;;;;;;3.55;1.17;;;19.90;99.90;;;;;;5058790;28;20207;-76
2023/04/02 07:14:58;;;;;;;4.35;1.27;;;19.80;99.90;;;;;;5055380;28;20654;-76
2023/04/02 07:17:29;;;;;;;4.55;1.13;;;19.80;99.90;;;;;;5054874;28;20202;-76
2023/04/02 07:20:00;;;;;;;3.72;1.30;;;19.80;99.90;;;;;;5054483;28;20202;-76
2023/04/02 07:22:31;;;;;;;6.65;1.40;;;19.80;99.90;;;;;;5059736;28;20204;-76
2023/04/02 07:25:02;;;;;;;4.72;1.30;;;19.70;99.90;;;;;;5058135;28;20231;-77
2023/04/02 07:27:34;;;;;;;4.22;1.60;;;19.70;99.90;;;;;;5053955;28;20210;-76
2023/04/02 07:30:08;;;;;;;8.30;1.65;;;19.70;99.90;;;;;;5054001;28;20677;-76
2023/04/02 07:32:39;;;;;;;4.60;1.23;;;19.70;99.90;;;;;;5054091;28;20195;-76
2023/04/02 07:35:11;;;;;;;5.60;1.45;;;19.60;99.90;;;;;;5053303;28;20204;-76
2023/04/02 07:37:42;;;;;;;6.97;1.50;;;19.60;99.90;;;;;;5056774;28;20691;-77
2023/04/02 07:40:20;;;;;;;5.55;1.45;;;19.60;99.90;;;;;;5065276;28;20200;-76
2023/04/02 07:42:52;;;;;;;5.65;1.80;;;19.60;99.90;;;;;;5058315;28;20668;-76
2023/04/02 07:45:25;;;;;;;6.82;1.80;;;19.60;99.90;;;;;;5057503;28;20852;-76
2023/04/02 07:47:56;;;;;;;6.60;1.50;;;19.60;99.90;;;;;;5055449;28;20204;-77
2023/04/02 07:50:27;;;;;;;7.43;2.05;;;19.60;99.90;;;;;;5054970;28;20222;-76
2023/04/02 07:52:58;;;;;;;9.55;3.33;;;19.60;99.90;;;;;;5054801;28;20203;-77
2023/04/02 07:55:30;;;;;;;13.95;7.10;;;19.60;99.90;;;;;;5062936;28;20203;-76
2023/04/02 07:58:02;;;;;;;9.25;4.13;;;19.50;99.90;;;;;;5067113;28;20555;-76
2023/04/02 08:00:35;;;;;;;8.57;2.30;;;19.50;99.90;;;;;;5061665;28;20200;-77
2023/04/02 08:03:07;;;;;;;7.13;2.03;;;19.50;99.90;;;;;;5056402;28;20196;-77
2023/04/02 08:05:38;;;;;;;7.82;1.85;;;19.40;99.90;;;;;;5054134;28;20238;-77
2023/04/02 08:08:09;;;;;;;6.75;1.70;;;19.50;99.90;;;;;;5075866;28;20212;-76
2023/04/02 08:10:40;;;;;;;4.20;1.50;;;19.40;99.90;;;;;;5078384;28;20570;-76
2023/04/02 08:13:11;;;;;;;4.68;1.25;;;19.40;99.90;;;;;;5075447;28;20200;-76
2023/04/02 08:15:44;;;;;;;5.75;1.20;;;19.40;99.90;;;;;;5093550;28;20203;-76
2023/04/02 08:18:16;;;;;;;3.65;1.27;;;19.30;99.90;;;;;;5081954;28;20199;-75
2023/04/02 08:20:47;;;;;;;3.40;0.93;;;19.30;99.90;;;;;;5073186;28;20474;-77
2023/04/02 08:23:18;;;;;;;3.10;1.00;;;19.30;99.90;;;;;;5068502;28;20822;-77
2023/04/02 08:25:52;;;;;;;3.67;0.88;;;19.20;99.90;;;;;;5058672;28;20200;-77
2023/04/02 08:28:23;;;;;;;3.35;0.90;;;19.20;99.90;;;;;;5050361;28;20211;-76
2023/04/02 08:30:57;;;;;;;3.47;0.90;;;19.10;99.90;;;;;;5050544;28;20890;-76
2023/04/02 08:33:28;;;;;;;3.35;1.02;;;19.10;99.90;;;;;;5050522;28;20204;-76
2023/04/02 08:35:59;;;;;;;2.00;0.90;;;19.10;99.90;;;;;;5053859;28;20206;-77
2023/04/02 08:38:30;;;;;;;1.75;0.82;;;19.10;99.90;;;;;;5051760;28;20206;-78
2023/04/02 08:41:04;;;;;;;2.75;0.77;;;19.00;99.90;;;;;;5050728;28;20199;-77
2023/04/02 08:43:54;;;;;;;3.08;0.90;;;19.00;99.90;;;;;;5056324;28;20322;-77
2023/04/02 08:46:32;;;;;;;2.30;0.90;;;19.00;99.90;;;;;;5065364;28;20192;-76
2023/04/02 08:49:06;;;;;;;4.28;1.33;;;19.00;99.90;;;;;;5059565;28;20205;-77
2023/04/02 08:51:39;;;;;;;1.70;0.90;;;19.00;99.90;;;;;;5052605;28;20312;-77
2023/04/02 08:54:18;;;;;;;3.10;1.30;;;19.00;99.90;;;;;;5053219;28;20203;-77
2023/04/02 08:56:54;;;;;;;3.58;1.70;;;19.00;99.90;;;;;;5053639;28;20199;-76
2023/04/02 08:59:34;;;;;;;4.88;1.98;;;19.00;99.90;;;;;;5053335;28;20198;-76
2023/04/02 09:02:22;;;;;;;5.57;2.63;;;19.00;99.90;;;;;;5051063;28;20232;-76
2023/04/02 09:04:54;;;;;;;4.07;2.45;;;18.90;99.90;;;;;;5053307;28;20234;-76
2023/04/02 09:07:26;;;;;;;4.20;1.83;;;18.90;99.90;;;;;;5052350;28;20253;-76
2023/04/02 09:09:58;;;;;;;4.15;1.60;;;18.90;99.90;;;;;;5052782;28;21309;-76
2023/04/02 09:12:31;;;;;;;6.60;2.00;;;18.90;99.90;;;;;;5058308;28;20389;-76
2023/04/02 09:15:22;;;;;;;7.40;1.98;;;18.90;99.90;;;;;;5055070;28;20235;-77
2023/04/02 09:18:30;;;;;;;3.45;1.25;;;18.90;99.90;;;;;;5070469;28;20208;-78
2023/04/02 09:21:16;;;;;;;3.40;1.60;;;18.90;99.90;;;;;;5078793;28;20272;-77
2023/04/02 09:23:57;;;;;;;3.95;1.90;;;18.90;99.90;;;;;;5087418;28;20200;-77
2023/04/02 09:26:34;;;;;;;6.03;2.88;;;18.90;99.90;;;;;;5065224;28;20295;-76
2023/04/02 09:29:37;;;;;;;3.83;1.48;;;18.80;99.90;;;;;;5063901;28;20865;-76
2023/04/02 09:32:29;;;;;;;2.80;1.40;;;18.80;99.90;;;;;;5068567;28;20189;-76
2023/04/02 09:35:14;;;;;;;4.93;1.60;;;18.80;99.90;;;;;;5066422;28;22072;-76
2023/04/02 09:37:51;;;;;;;2.55;1.17;;;18.80;99.90;;;;;;5070759;28;20176;-76
2023/04/02 09:40:31;;;;;;;4.22;1.73;;;18.80;99.90;;;;;;5070911;28;20202;-76
2023/04/02 09:43:17;;;;;;;2.88;1.48;;;18.80;99.90;;;;;;5070592;28;20262;-76
2023/04/02 09:46:02;;;;;;;3.67;1.50;;;18.80;99.90;;;;;;5069794;28;20870;-76
2023/04/02 09:48:40;;;;;;;6.32;2.88;;;18.80;99.90;;;;;;5063265;28;20215;-76
2023/04/02 09:51:17;;;;;;;4.97;2.20;;;18.80;99.90;;;;;;5061271;28;20210;-75
2023/04/02 09:53:51;;;;;;;4.03;1.90;;;18.70;99.90;;;;;;5061940;28;20571;-76
2023/04/02 09:56:36;;;;;;;4.10;1.23;;;18.80;99.90;;;;;;5067399;28;20194;-76
2023/04/02 09:59:20;;;;;;;5.10;2.00;;;18.80;99.90;;;;;;5065027;28;20203;-76
2023/04/02 10:02:04;;;;;;;4.32;1.60;;;18.80;99.90;;;;;;5061763;28;20253;-76
2023/04/02 10:04:42;;;;;;;2.60;1.30;;;18.80;99.90;;;;;;5064806;28;20288;-76
2023/04/02 10:07:37;;;;;;;3.90;1.65;;;18.80;99.90;;;;;;5067078;28;20229;-76
2023/04/02 10:10:25;;;;;;;5.35;1.80;;;18.80;99.90;;;;;;5066864;28;20191;-76
2023/04/02 10:13:02;;;;;;;3.75;1.80;;;18.80;99.90;;;;;;5063630;28;20211;-76
2023/04/02 10:15:44;;;;;;;6.35;2.40;;;18.80;99.90;;;;;;5068259;28;20231;-76
2023/04/02 10:18:22;;;;;;;3.80;1.42;;;18.80;99.90;;;;;;5069001;28;20211;-76
2023/04/02 10:20:55;;;;;;;3.10;1.13;;;18.70;99.90;;;;;;5066163;28;20230;-76
2023/04/02 10:23:31;;;;;;;5.05;1.20;;;18.80;99.90;;;;;;5075927;28;21032;-76
2023/04/02 10:26:17;;;;;;;2.35;1.10;;;18.80;99.90;;;;;;5065526;28;20227;-76
2023/04/02 10:29:04;;;;;;;3.55;1.08;;;18.70;99.90;;;;;;5066246;28;20667;-76
2023/04/02 10:31:43;;;;;;;1.00;0.63;;;18.70;99.90;;;;;;5064128;28;20225;-76
2023/04/02 10:34:23;;;;;;;3.38;1.08;;;18.70;99.90;;;;;;5067638;28;20275;-76
2023/04/02 10:37:00;;;;;;;3.75;0.73;;;18.70;99.90;;;;;;5062317;28;20574;-76
2023/04/02 10:39:38;;;;;;;2.35;1.00;;;18.70;99.90;;;;;;5062565;28;20207;-76
2023/04/02 10:42:22;;;;;;;5.70;0.85;;;18.60;99.90;;;;;;5064476;28;20573;-76
2023/04/02 10:45:03;;;;;;;3.42;1.00;;;18.60;99.90;;;;;;5067554;28;20216;-77
2023/04/02 10:47:44;;;;;;;2.85;0.95;;;18.60;99.90;;;;;;5068908;28;20196;-76
2023/04/02 10:50:31;;;;;;;4.85;1.13;;;18.50;99.90;;;;;;5063750;28;20261;-77
2023/04/02 10:53:11;;;;;;;4.30;1.50;;;18.60;99.90;;;;;;5070829;28;20229;-77
2023/04/02 10:55:48;;;;;;;5.47;1.63;;;18.60;99.90;;;;;;5070250;28;21175;-76
2023/04/02 10:58:26;;;;;;;4.15;1.70;;;18.60;99.90;;;;;;5062082;28;20942;-78
2023/04/02 11:01:03;;;;;;;4.65;1.42;;;18.60;99.90;;;;;;5065968;28;20570;-76
2023/04/02 11:03:38;;;;;;;5.82;1.63;;;18.60;99.90;;;;;;5060112;28;20281;-76
2023/04/02 11:06:23;;;;;;;2.53;1.02;;;18.60;99.90;;;;;;5076314;28;20578;-76
2023/04/02 11:08:57;;;;;;;4.05;1.08;;;18.60;99.90;;;;;;5062843;28;20199;-76
2023/04/02 11:11:36;;;;;;;2.75;1.17;;;18.70;99.90;;;;;;5068271;28;20203;-77
2023/04/02 11:14:18;;;;;;;5.20;1.00;;;18.70;99.90;;;;;;5063157;28;20238;-77
2023/04/02 11:16:53;;;;;;;3.90;1.00;;;18.70;99.90;;;;;;5060366;28;20850;-76
2023/04/02 11:19:29;;;;;;;4.38;0.90;;;18.70;99.90;;;;;;5057799;28;20195;-78
2023/04/02 11:22:02;;;;;;;5.75;1.42;;;18.70;99.90;;;;;;5060471;28;20662;-76
2023/04/02 11:24:44;;;;;;;3.95;1.38;;;18.70;99.90;;;;;;5053367;28;20215;-77
2023/04/02 11:27:26;;;;;;;5.47;1.40;;;18.70;99.90;;;;;;5051497;28;20877;-77
2023/04/02 11:30:06;;;;;;;4.32;1.10;;;18.70;99.90;;;;;;5050559;28;20676;-77
2023/04/02 11:32:41;;;;;;;3.20;1.30;;;18.70;99.90;;;;;;5050267;28;20196;-77
2023/04/02 11:35:36;;;;;;;4.85;1.38;;;18.70;99.90;;;;;;5067234;28;20198;-78
2023/04/02 11:38:50;;;;;;;3.75;1.00;;;18.70;99.90;;;;;;5062979;28;20195;-81
2023/04/02 11:41:52;;;;;;;3.28;1.38;;;18.70;99.90;;;;;;5061362;28;20227;-78
2023/04/02 11:44:27;;;;;;;6.13;1.42;;;18.70;99.90;;;;;;5054769;28;20207;-78
2023/04/02 11:47:18;;;;;;;2.25;1.00;;;18.70;99.90;;;;;;5055052;28;20196;-76
2023/04/02 11:50:28;;;;;;;4.07;1.30;;;18.70;99.90;;;;;;5056721;28;20191;-79
2023/04/02 11:53:06;;;;;;;4.75;1.30;;;18.70;99.90;;;;;;5056744;28;20203;-78
2023/04/02 11:55:38;;;;;;;5.30;1.30;;;18.70;99.90;;;;;;5057384;28;20218;-78
2023/04/02 11:58:31;;;;;;;3.72;1.10;;;18.70;99.90;;;;;;5057817;28;20199;-78
2023/04/02 12:01:44;;;;;;;5.30;1.45;;;18.70;99.90;;;;;;5048190;28;20208;-78
2023/04/02 12:05:02;;;;;;;4.20;1.30;;;18.70;99.90;;;;;;5054454;28;21673;-78
2023/04/02 12:08:04;;;;;;;2.72;1.23;;;18.70;99.90;;;;;;5059906;28;20219;-78
2023/04/02 12:10:50;;;;;;;4.28;1.52;;;18.70;99.90;;;;;;5054449;28;20283;-78
2023/04/02 12:13:23;;;;;;;5.50;1.73;;;18.70;99.90;;;;;;5053715;28;20665;-76
2023/04/02 12:15:59;;;;;;;4.00;1.35;;;18.70;99.90;;;;;;5056105;28;20271;-76
2023/04/02 12:18:30;;;;;;;4.60;1.33;;;18.70;99.90;;;;;;5056206;28;20281;-76
2023/04/02 12:21:01;;;;;;;6.43;1.60;;;18.70;99.90;;;;;;5053599;28;21649;-77
2023/04/02 12:23:38;;;;;;;7.38;1.67;;;18.60;99.90;;;;;;5064832;28;20207;-77
2023/04/02 12:26:26;;;;;;;5.15;1.63;;;18.70;99.90;;;;;;5058316;28;20231;-77
2023/04/02 12:28:57;;;;;;;3.95;1.20;;;18.70;99.90;;;;;;5056630;28;20262;-77
2023/04/02 12:31:29;;;;;;;3.28;1.30;;;18.70;99.90;;;;;;5056736;28;20203;-77
2023/04/02 12:34:01;;;;;;;5.93;1.40;;;18.70;99.90;;;;;;5051413;28;20689;-76
2023/04/02 12:36:33;;;;;;;3.80;1.27;;;18.70;99.90;;;;;;5053045;28;21842;-76
2023/04/02 12:39:06;;;;;;;5.18;1.35;;;18.70;99.90;;;;;;5054633;28;20261;-78
2023/04/02 12:41:39;;;;;;;4.95;1.15;;;18.70;99.90;;;;;;5057626;28;20658;-77
2023/04/02 12:44:17;;;;;;;4.85;1.20;;;18.70;99.90;;;;;;5054275;28;20340;-76
2023/04/02 12:46:49;;;;;;;2.92;1.02;;;18.70;99.90;;;;;;5060477;28;21210;-78
2023/04/02 12:49:33;;;;;;;3.90;1.20;;;18.70;99.90;;;;;;5056397;28;20191;-78
2023/04/02 12:52:07;;;;;;;3.83;1.48;;;18.70;99.90;;;;;;5053543;28;20203;-77
2023/04/02 12:54:47;;;;;;;4.00;1.25;;;18.70;99.90;;;;;;5051028;28;20770;-79
2023/04/02 12:57:35;;;;;;;3.03;1.42;;;18.60;99.90;;;;;;5057266;28;20605;-77
2023/04/02 13:00:36;;;;;;;3.65;1.08;;;18.60;99.90;;;;;;5056160;28;20674;-77
2023/04/02 13:03:22;;;;;;;6.10;1.17;;;18.60;99.90;;;;;;5053854;28;20235;-77
2023/04/02 13:05:56;;;;;;;7.47;1.20;;;18.60;99.90;;;;;;5052590;28;20234;-76
2023/04/02 13:08:29;;;;;;;4.53;1.15;;;18.50;99.90;;;;;;5055674;28;20211;-76
2023/04/02 13:11:04;;;;;;;3.10;0.82;;;18.60;99.90;;;;;;5057711;28;20215;-76
2023/04/02 13:13:38;;;;;;;5.10;0.90;;;18.50;99.90;;;;;;5050698;28;20246;-76
2023/04/02 13:16:25;;;;;;;5.72;1.00;;;18.50;99.90;;;;;;5048590;28;20203;-76
2023/04/02 13:19:22;;;;;;;1.83;0.77;;;18.50;99.90;;;;;;5049763;28;20551;-76
2023/04/02 13:21:54;;;;;;;1.83;0.90;;;18.50;99.90;;;;;;5057652;28;20776;-76
2023/04/02 13:24:26;;;;;;;3.15;0.70;;;18.50;99.90;;;;;;5052420;28;20402;-76
2023/04/02 13:27:01;;;;;;;3.47;0.80;;;18.50;99.90;;;;;;5048985;28;20896;-76
2023/04/02 13:29:33;;;;;;;3.80;0.90;;;18.50;99.90;;;;;;5049092;28;20202;-76
2023/04/02 13:32:05;;;;;;;2.80;0.80;;;18.50;99.90;;;;;;5054121;28;20511;-76
2023/04/02 13:34:36;;;;;;;1.75;0.70;;;18.50;99.90;;;;;;5051876;28;20203;-77
2023/04/02 13:37:08;;;;;;;1.95;0.90;;;18.50;99.90;;;;;;5057945;28;20199;-76
2023/04/02 13:39:39;;;;;;;4.75;1.00;;;18.50;99.90;;;;;;5050713;28;20207;-77